sensor_id;sensor_type;location;lat;lon;timestamp;pressure;altitude;pressure_sealevel;temperature;humidity
13695;BME280;6919;52.344;14.518;2024-02-23T00:01:40;97803.81;;;14.00;100.00
13695;BME280;6919;52.344;14.518;2024-02-23T00:04:08;97804.78;;;13.94;100.00
13695;BME280;6919;52.344;14.518;2024-02-23T00:06:38;97802.75;;;14.01;100.00
13695;BME280;6919;52.344;14.518;2024-02-23T00:09:06;97808.78;;;13.91;100.00
13695;BME280;6919;52.344;14.518;2024-02-23T00:11:35;97804.78;;;13.94;100.00
13695;BME280;6919;52.344;14.518;2024-02-23T00:14:07;97809.22;;;14.16;100.00
13695;BME280;6919;52.344;14.518;2024-02-23T00:16:38;97807.59;;;14.15;100.00
13695;BME280;6919;52.344;14.518;2024-02-23T00:19:08;97805.16;;;14.14;100.00
13695;BME280;6919;52.344;14.518;2024-02-23T00:21:39;97802.22;;;14.15;100.00
13695;BME280;6919;52.344;14.518;2024-02-23T00:24:09;97806.16;;;14.24;100.00
13695;BME280;6919;52.344;14.518;2024-02-23T00:26:37;97795.13;;;14.26;100.00
13695;BME280;6919;52.344;14.518;2024-02-23T00:29:05;97805.03;;;14.09;100.00
13695;BME280;6919;52.344;14.518;2024-02-23T00:31:37;97806.59;;;14.21;100.00
13695;BME280;6919;52.344;14.518;2024-02-23T00:34:05;97799.81;;;14.19;100.00
13695;BME280;6919;52.344;14.518;2024-02-23T00:36:40;97795.94;;;14.26;100.00
13695;BME280;6919;52.344;14.518;2024-02-23T00:39:09;97793.13;;;14.21;100.00
13695;BME280;6919;52.344;14.518;2024-02-23T00:41:37;97797.38;;;14.17;100.00
13695;BME280;6919;52.344;14.518;2024-02-23T00:44:06;97796.25;;;14.30;100.00
13695;BME280;6919;52.344;14.518;2024-02-23T00:46:34;97804.03;;;14.26;100.00
13695;BME280;6919;52.344;14.518;2024-02-23T00:49:02;97800.00;;;14.45;100.00
13695;BME280;6919;52.344;14.518;2024-02-23T00:51:31;97807.31;;;14.45;100.00
13695;BME280;6919;52.344;14.518;2024-02-23T00:54:01;97801.81;;;14.40;100.00
13695;BME280;6919;52.344;14.518;2024-02-23T00:56:29;97789.84;;;14.31;100.00
13695;BME280;6919;52.344;14.518;2024-02-23T00:59:11;97809.22;;;14.49;100.00
13695;BME280;6919;52.344;14.518;2024-02-23T01:01:40;97811.44;;;14.52;100.00
13695;BME280;6919;52.344;14.518;2024-02-23T01:04:08;97802.13;;;14.27;100.00
13695;BME280;6919;52.344;14.518;2024-02-23T01:06:36;97802.63;;;14.57;100.00
13695;BME280;6919;52.344;14.518;2024-02-23T01:09:07;97797.06;;;14.47;100.00
13695;BME280;6919;52.344;14.518;2024-02-23T01:11:35;97810.56;;;14.47;100.00
13695;BME280;6919;52.344;14.518;2024-02-23T01:14:04;97802.88;;;14.39;100.00
13695;BME280;6919;52.344;14.518;2024-02-23T01:16:33;97801.81;;;14.40;100.00
13695;BME280;6919;52.344;14.518;2024-02-23T01:19:02;97791.94;;;14.29;100.00
13695;BME280;6919;52.344;14.518;2024-02-23T01:21:31;97787.75;;;14.54;100.00
13695;BME280;6919;52.344;14.518;2024-02-23T01:24:00;97773.31;;;14.44;100.00
13695;BME280;6919;52.344;14.518;2024-02-23T01:26:30;97773.53;;;14.42;100.00
13695;BME280;6919;52.344;14.518;2024-02-23T01:28:58;97775.00;;;14.50;100.00
13695;BME280;6919;52.344;14.518;2024-02-23T01:31:27;97798.22;;;14.34;100.00
13695;BME280;6919;52.344;14.518;2024-02-23T01:33:55;97786.38;;;14.52;100.00
13695;BME280;6919;52.344;14.518;2024-02-23T01:36:24;97795.25;;;14.52;100.00
13695;BME280;6919;52.344;14.518;2024-02-23T01:38:53;97792.06;;;14.55;100.00
13695;BME280;6919;52.344;14.518;2024-02-23T01:41:21;97801.63;;;14.63;100.00
13695;BME280;6919;52.344;14.518;2024-02-23T01:43:51;97817.00;;;14.46;100.00
13695;BME280;6919;52.344;14.518;2024-02-23T01:46:20;97824.88;;;14.31;100.00
13695;BME280;6919;52.344;14.518;2024-02-23T01:48:48;97808.75;;;14.36;100.00
13695;BME280;6919;52.344;14.518;2024-02-23T01:51:17;97827.94;;;14.39;100.00
13695;BME280;6919;52.344;14.518;2024-02-23T01:53:46;97831.06;;;14.31;100.00
13695;BME280;6919;52.344;14.518;2024-02-23T01:56:16;97843.88;;;14.57;100.00
13695;BME280;6919;52.344;14.518;2024-02-23T01:58:47;97844.53;;;14.31;100.00
13695;BME280;6919;52.344;14.518;2024-02-23T02:01:17;97855.00;;;14.44;100.00
13695;BME280;6919;52.344;14.518;2024-02-23T02:03:46;97861.59;;;14.37;100.00
13695;BME280;6919;52.344;14.518;2024-02-23T02:06:14;97872.06;;;14.33;100.00
13695;BME280;6919;52.344;14.518;2024-02-23T02:08:43;97870.75;;;14.52;100.00
13695;BME280;6919;52.344;14.518;2024-02-23T02:11:12;97866.69;;;14.33;100.00
13695;BME280;6919;52.344;14.518;2024-02-23T02:13:40;97873.13;;;14.49;100.00
13695;BME280;6919;52.344;14.518;2024-02-23T02:16:09;97876.06;;;14.47;100.00
13695;BME280;6919;52.344;14.518;2024-02-23T02:18:39;97878.56;;;14.21;100.00
13695;BME280;6919;52.344;14.518;2024-02-23T02:21:08;97905.41;;;14.16;100.00
13695;BME280;6919;52.344;14.518;2024-02-23T02:23:36;97912.50;;;14.33;100.00
13695;BME280;6919;52.344;14.518;2024-02-23T02:26:05;97911.84;;;14.15;100.00
13695;BME280;6919;52.344;14.518;2024-02-23T02:28:33;97898.97;;;14.17;100.00
13695;BME280;6919;52.344;14.518;2024-02-23T02:31:02;97933.34;;;14.10;100.00
13695;BME280;6919;52.344;14.518;2024-02-23T02:33:30;97934.13;;;14.22;100.00
13695;BME280;6919;52.344;14.518;2024-02-23T02:36:00;97939.69;;;14.32;100.00
13695;BME280;6919;52.344;14.518;2024-02-23T02:38:28;97935.94;;;14.33;100.00
13695;BME280;6919;52.344;14.518;2024-02-23T02:40:56;97943.47;;;14.47;100.00
13695;BME280;6919;52.344;14.518;2024-02-23T02:43:27;97955.19;;;14.25;100.00
13695;BME280;6919;52.344;14.518;2024-02-23T02:45:56;97960.78;;;14.35;100.00
13695;BME280;6919;52.344;14.518;2024-02-23T02:48:24;97981.47;;;14.46;100.00
13695;BME280;6919;52.344;14.518;2024-02-23T02:50:53;97985.91;;;14.24;100.00
13695;BME280;6919;52.344;14.518;2024-02-23T02:53:22;97988.72;;;14.45;100.00
13695;BME280;6919;52.344;14.518;2024-02-23T02:55:51;97989.56;;;14.46;100.00
13695;BME280;6919;52.344;14.518;2024-02-23T02:58:19;97988.41;;;14.42;100.00
13695;BME280;6919;52.344;14.518;2024-02-23T03:00:47;97994.59;;;14.42;100.00
13695;BME280;6919;52.344;14.518;2024-02-23T03:03:15;97980.44;;;14.35;100.00
13695;BME280;6919;52.344;14.518;2024-02-23T03:05:44;97987.16;;;14.49;100.00
13695;BME280;6919;52.344;14.518;2024-02-23T03:08:12;97991.41;;;14.45;100.00
13695;BME280;6919;52.344;14.518;2024-02-23T03:10:42;97993.13;;;14.35;100.00
13695;BME280;6919;52.344;14.518;2024-02-23T03:13:10;98001.78;;;13.97;100.00
13695;BME280;6919;52.344;14.518;2024-02-23T03:15:38;98020.88;;;14.35;100.00
13695;BME280;6919;52.344;14.518;2024-02-23T03:18:07;98026.44;;;14.06;100.00
13695;BME280;6919;52.344;14.518;2024-02-23T03:20:36;98021.34;;;14.04;100.00
13695;BME280;6919;52.344;14.518;2024-02-23T03:23:05;98038.13;;;13.83;100.00
13695;BME280;6919;52.344;14.518;2024-02-23T03:25:33;98059.38;;;13.96;100.00
13695;BME280;6919;52.344;14.518;2024-02-23T03:28:03;98061.94;;;14.26;99.30
13695;BME280;6919;52.344;14.518;2024-02-23T03:30:31;98075.91;;;14.11;98.13
13695;BME280;6919;52.344;14.518;2024-02-23T03:33:03;98082.91;;;14.12;95.33
13695;BME280;6919;52.344;14.518;2024-02-23T03:35:32;98075.69;;;14.01;93.63
13695;BME280;6919;52.344;14.518;2024-02-23T03:38:00;98088.78;;;13.98;90.39
13695;BME280;6919;52.344;14.518;2024-02-23T03:40:29;98092.56;;;13.74;85.02
13695;BME280;6919;52.344;14.518;2024-02-23T03:42:57;98092.59;;;13.62;82.09
13695;BME280;6919;52.344;14.518;2024-02-23T03:45:27;98089.16;;;13.67;77.97
13695;BME280;6919;52.344;14.518;2024-02-23T03:47:55;98090.38;;;13.71;77.59
13695;BME280;6919;52.344;14.518;2024-02-23T03:50:24;98103.78;;;13.82;79.48
13695;BME280;6919;52.344;14.518;2024-02-23T03:52:52;98118.19;;;13.53;80.24
13695;BME280;6919;52.344;14.518;2024-02-23T03:55:20;98111.06;;;13.59;78.36
13695;BME280;6919;52.344;14.518;2024-02-23T03:57:49;98111.84;;;13.36;75.86
13695;BME280;6919;52.344;14.518;2024-02-23T04:00:18;98139.50;;;13.32;75.27
13695;BME280;6919;52.344;14.518;2024-02-23T04:02:49;98152.03;;;13.49;73.62
13695;BME280;6919;52.344;14.518;2024-02-23T04:05:17;98128.13;;;13.30;72.41
13695;BME280;6919;52.344;14.518;2024-02-23T04:07:46;98129.88;;;13.24;71.10
13695;BME280;6919;52.344;14.518;2024-02-23T04:10:14;98155.63;;;13.43;72.37
13695;BME280;6919;52.344;14.518;2024-02-23T04:12:43;98161.97;;;13.49;72.88
13695;BME280;6919;52.344;14.518;2024-02-23T04:15:12;98178.38;;;13.06;73.15
13695;BME280;6919;52.344;14.518;2024-02-23T04:17:40;98184.94;;;13.10;73.00
13695;BME280;6919;52.344;14.518;2024-02-23T04:20:10;98191.72;;;13.13;74.82
13695;BME280;6919;52.344;14.518;2024-02-23T04:22:40;98201.09;;;12.92;74.54
13695;BME280;6919;52.344;14.518;2024-02-23T04:25:08;98211.09;;;13.03;76.52
13695;BME280;6919;52.344;14.518;2024-02-23T04:27:37;98215.19;;;13.06;77.83
13695;BME280;6919;52.344;14.518;2024-02-23T04:30:07;98219.84;;;12.81;78.98
13695;BME280;6919;52.344;14.518;2024-02-23T04:32:36;98228.13;;;12.79;79.20
13695;BME280;6919;52.344;14.518;2024-02-23T04:35:05;98230.97;;;12.84;75.78
13695;BME280;6919;52.344;14.518;2024-02-23T04:37:35;98214.38;;;12.87;74.24
13695;BME280;6919;52.344;14.518;2024-02-23T04:40:05;98241.34;;;12.81;72.84
13695;BME280;6919;52.344;14.518;2024-02-23T04:42:33;98248.97;;;12.84;72.63
13695;BME280;6919;52.344;14.518;2024-02-23T04:45:01;98250.25;;;12.63;73.38
13695;BME280;6919;52.344;14.518;2024-02-23T04:47:30;98270.53;;;12.59;69.04
13695;BME280;6919;52.344;14.518;2024-02-23T04:49:59;98266.34;;;12.27;68.12
13695;BME280;6919;52.344;14.518;2024-02-23T04:52:29;98290.50;;;12.52;68.89
13695;BME280;6919;52.344;14.518;2024-02-23T04:54:59;98302.50;;;12.49;69.41
13695;BME280;6919;52.344;14.518;2024-02-23T04:57:28;98303.41;;;12.43;69.95
13695;BME280;6919;52.344;14.518;2024-02-23T04:59:56;98316.84;;;12.43;70.29
13695;BME280;6919;52.344;14.518;2024-02-23T05:02:25;98323.47;;;12.41;71.38
13695;BME280;6919;52.344;14.518;2024-02-23T05:04:56;98317.44;;;12.45;71.25
13695;BME280;6919;52.344;14.518;2024-02-23T05:07:24;98329.63;;;12.48;71.94
13695;BME280;6919;52.344;14.518;2024-02-23T05:09:52;98339.03;;;12.08;73.14
13695;BME280;6919;52.344;14.518;2024-02-23T05:12:22;98346.88;;;12.09;74.25
13695;BME280;6919;52.344;14.518;2024-02-23T05:14:50;98350.41;;;12.10;74.92
13695;BME280;6919;52.344;14.518;2024-02-23T05:17:19;98355.75;;;12.34;74.89
13695;BME280;6919;52.344;14.518;2024-02-23T05:19:47;98361.09;;;12.16;75.30
13695;BME280;6919;52.344;14.518;2024-02-23T05:22:15;98375.63;;;12.09;76.54
13695;BME280;6919;52.344;14.518;2024-02-23T05:24:43;98383.69;;;12.09;78.82
13695;BME280;6919;52.344;14.518;2024-02-23T05:27:12;98369.56;;;11.88;76.36
13695;BME280;6919;52.344;14.518;2024-02-23T05:29:42;98396.50;;;12.07;76.00
13695;BME280;6919;52.344;14.518;2024-02-23T05:32:10;98392.88;;;11.95;78.37
13695;BME280;6919;52.344;14.518;2024-02-23T05:34:39;98397.69;;;11.79;78.04
13695;BME280;6919;52.344;14.518;2024-02-23T05:37:08;98412.88;;;11.99;78.06
13695;BME280;6919;52.344;14.518;2024-02-23T05:39:36;98413.47;;;11.63;77.97
13695;BME280;6919;52.344;14.518;2024-02-23T05:42:05;98409.16;;;11.62;77.47
13695;BME280;6919;52.344;14.518;2024-02-23T05:44:33;98411.50;;;11.39;75.64
13695;BME280;6919;52.344;14.518;2024-02-23T05:47:04;98419.66;;;11.63;73.16
13695;BME280;6919;52.344;14.518;2024-02-23T05:49:32;98434.94;;;11.69;73.79
13695;BME280;6919;52.344;14.518;2024-02-23T05:52:02;98450.59;;;11.72;73.09
13695;BME280;6919;52.344;14.518;2024-02-23T05:54:30;98468.38;;;11.73;73.03
13695;BME280;6919;52.344;14.518;2024-02-23T05:56:59;98468.13;;;11.81;73.72
13695;BME280;6919;52.344;14.518;2024-02-23T05:59:27;98479.53;;;11.57;74.21
13695;BME280;6919;52.344;14.518;2024-02-23T06:01:56;98485.34;;;11.48;75.38
13695;BME280;6919;52.344;14.518;2024-02-23T06:04:27;98499.09;;;11.77;76.16
13695;BME280;6919;52.344;14.518;2024-02-23T06:06:55;98507.22;;;11.51;78.09
13695;BME280;6919;52.344;14.518;2024-02-23T06:09:24;98506.34;;;11.77;78.77
13695;BME280;6919;52.344;14.518;2024-02-23T06:11:52;98500.81;;;11.46;80.39
13695;BME280;6919;52.344;14.518;2024-02-23T06:14:21;98495.44;;;11.46;83.23
13695;BME280;6919;52.344;14.518;2024-02-23T06:16:50;98515.47;;;11.56;82.72
13695;BME280;6919;52.344;14.518;2024-02-23T06:19:18;98527.03;;;11.63;84.16
13695;BME280;6919;52.344;14.518;2024-02-23T06:21:49;98541.69;;;11.54;85.34
13695;BME280;6919;52.344;14.518;2024-02-23T06:24:18;98530.56;;;11.64;87.79
13695;BME280;6919;52.344;14.518;2024-02-23T06:26:46;98531.59;;;11.43;88.74
13695;BME280;6919;52.344;14.518;2024-02-23T06:29:16;98549.38;;;11.31;91.57
13695;BME280;6919;52.344;14.518;2024-02-23T06:31:44;98546.72;;;11.25;87.00
13695;BME280;6919;52.344;14.518;2024-02-23T06:34:16;98556.94;;;11.60;81.69
13695;BME280;6919;52.344;14.518;2024-02-23T06:36:44;98563.72;;;11.89;81.38
13695;BME280;6919;52.344;14.518;2024-02-23T06:39:14;98569.56;;;11.47;81.49
13695;BME280;6919;52.344;14.518;2024-02-23T06:41:45;98583.97;;;11.78;78.53
13695;BME280;6919;52.344;14.518;2024-02-23T06:44:13;98596.38;;;11.53;77.67
13695;BME280;6919;52.344;14.518;2024-02-23T06:46:41;98591.06;;;11.27;75.02
13695;BME280;6919;52.344;14.518;2024-02-23T06:49:11;98594.53;;;11.60;74.75
13695;BME280;6919;52.344;14.518;2024-02-23T06:51:40;98584.84;;;11.46;75.33
13695;BME280;6919;52.344;14.518;2024-02-23T06:54:09;98597.22;;;11.60;74.09
13695;BME280;6919;52.344;14.518;2024-02-23T06:56:39;98587.75;;;11.38;72.94
13695;BME280;6919;52.344;14.518;2024-02-23T06:59:07;98598.03;;;11.54;72.10
13695;BME280;6919;52.344;14.518;2024-02-23T07:01:35;98594.78;;;11.65;72.69
13695;BME280;6919;52.344;14.518;2024-02-23T07:04:07;98617.03;;;11.14;72.98
13695;BME280;6919;52.344;14.518;2024-02-23T07:06:35;98622.81;;;11.56;74.02
13695;BME280;6919;52.344;14.518;2024-02-23T07:09:04;98639.34;;;11.47;72.59
13695;BME280;6919;52.344;14.518;2024-02-23T07:11:32;98643.44;;;11.56;73.90
13695;BME280;6919;52.344;14.518;2024-02-23T07:14:02;98644.72;;;11.27;73.89
13695;BME280;6919;52.344;14.518;2024-02-23T07:16:30;98642.66;;;11.55;75.82
13695;BME280;6919;52.344;14.518;2024-02-23T07:18:59;98636.47;;;11.68;74.76
13695;BME280;6919;52.344;14.518;2024-02-23T07:21:27;98647.41;;;11.47;75.01
13695;BME280;6919;52.344;14.518;2024-02-23T07:23:55;98647.19;;;11.48;76.88
13695;BME280;6919;52.344;14.518;2024-02-23T07:26:23;98655.03;;;11.76;78.10
13695;BME280;6919;52.344;14.518;2024-02-23T07:28:52;98649.63;;;11.82;82.30
13695;BME280;6919;52.344;14.518;2024-02-23T07:31:21;98653.13;;;12.03;82.54
13695;BME280;6919;52.344;14.518;2024-02-23T07:33:50;98664.94;;;11.88;88.16
13695;BME280;6919;52.344;14.518;2024-02-23T07:36:19;98655.44;;;11.79;93.28
13695;BME280;6919;52.344;14.518;2024-02-23T07:38:47;98670.31;;;11.75;96.17
13695;BME280;6919;52.344;14.518;2024-02-23T07:41:16;98671.13;;;11.82;97.77
13695;BME280;6919;52.344;14.518;2024-02-23T07:43:45;98675.25;;;11.78;98.68
13695;BME280;6919;52.344;14.518;2024-02-23T07:46:13;98671.31;;;11.81;100.00
13695;BME280;6919;52.344;14.518;2024-02-23T07:48:44;98665.16;;;11.80;99.54
13695;BME280;6919;52.344;14.518;2024-02-23T07:51:15;98665.72;;;12.02;99.77
13695;BME280;6919;52.344;14.518;2024-02-23T07:53:43;98678.50;;;12.13;100.00
13695;BME280;6919;52.344;14.518;2024-02-23T07:56:12;98673.94;;;12.27;100.00
13695;BME280;6919;52.344;14.518;2024-02-23T07:58:40;98676.47;;;12.09;100.00
13695;BME280;6919;52.344;14.518;2024-02-23T08:01:08;98684.38;;;11.77;100.00
13695;BME280;6919;52.344;14.518;2024-02-23T08:03:37;98697.38;;;11.80;100.00
13695;BME280;6919;52.344;14.518;2024-02-23T08:06:10;98716.13;;;11.93;100.00
13695;BME280;6919;52.344;14.518;2024-02-23T08:08:40;98705.41;;;12.00;100.00
13695;BME280;6919;52.344;14.518;2024-02-23T08:11:08;98703.09;;;12.17;100.00
13695;BME280;6919;52.344;14.518;2024-02-23T08:13:37;98704.06;;;12.42;100.00
13695;BME280;6919;52.344;14.518;2024-02-23T08:16:05;98727.28;;;12.17;100.00
13695;BME280;6919;52.344;14.518;2024-02-23T08:18:34;98735.59;;;11.89;100.00
13695;BME280;6919;52.344;14.518;2024-02-23T08:21:04;98744.25;;;11.98;98.54
13695;BME280;6919;52.344;14.518;2024-02-23T08:23:34;98763.66;;;11.73;98.40
13695;BME280;6919;52.344;14.518;2024-02-23T08:26:03;98761.81;;;11.80;97.70
13695;BME280;6919;52.344;14.518;2024-02-23T08:28:31;98768.84;;;11.75;97.99
13695;BME280;6919;52.344;14.518;2024-02-23T08:30:59;98762.16;;;11.32;100.00
13695;BME280;6919;52.344;14.518;2024-02-23T08:33:27;98782.03;;;11.89;99.45
13695;BME280;6919;52.344;14.518;2024-02-23T08:35:56;98787.22;;;11.91;92.21
13695;BME280;6919;52.344;14.518;2024-02-23T08:38:24;98791.75;;;12.17;93.25
13695;BME280;6919;52.344;14.518;2024-02-23T08:40:54;98801.25;;;11.86;93.48
13695;BME280;6919;52.344;14.518;2024-02-23T08:43:22;98793.19;;;11.80;92.21
13695;BME280;6919;52.344;14.518;2024-02-23T08:45:50;98790.91;;;11.97;92.12
13695;BME280;6919;52.344;14.518;2024-02-23T08:48:18;98796.94;;;12.12;92.74
13695;BME280;6919;52.344;14.518;2024-02-23T08:50:47;98811.78;;;12.08;94.44
13695;BME280;6919;52.344;14.518;2024-02-23T08:53:15;98808.28;;;11.74;95.43
13695;BME280;6919;52.344;14.518;2024-02-23T08:55:44;98801.88;;;11.95;93.91
13695;BME280;6919;52.344;14.518;2024-02-23T08:58:13;98820.25;;;11.78;96.15
13695;BME280;6919;52.344;14.518;2024-02-23T09:00:41;98827.22;;;11.60;95.92
13695;BME280;6919;52.344;14.518;2024-02-23T09:03:10;98831.03;;;11.85;95.42
13695;BME280;6919;52.344;14.518;2024-02-23T09:05:38;98831.00;;;11.98;94.72
13695;BME280;6919;52.344;14.518;2024-02-23T09:08:07;98835.97;;;11.81;92.30
13695;BME280;6919;52.344;14.518;2024-02-23T09:10:36;98824.59;;;11.66;94.01
13695;BME280;6919;52.344;14.518;2024-02-23T09:13:04;98831.19;;;11.64;94.05
13695;BME280;6919;52.344;14.518;2024-02-23T09:15:34;98832.13;;;11.43;96.47
13695;BME280;6919;52.344;14.518;2024-02-23T09:18:02;98825.19;;;11.68;96.31
13695;BME280;6919;52.344;14.518;2024-02-23T09:20:31;98825.97;;;11.49;96.79
13695;BME280;6919;52.344;14.518;2024-02-23T09:23:00;98829.03;;;11.46;96.56
13695;BME280;6919;52.344;14.518;2024-02-23T09:25:28;98828.94;;;11.87;95.96
13695;BME280;6919;52.344;14.518;2024-02-23T09:27:57;98832.22;;;11.82;95.20
13695;BME280;6919;52.344;14.518;2024-02-23T09:30:26;98846.69;;;11.81;95.60
13695;BME280;6919;52.344;14.518;2024-02-23T09:32:55;98838.22;;;11.65;97.68
13695;BME280;6919;52.344;14.518;2024-02-23T09:35:24;98833.47;;;11.73;96.03
13695;BME280;6919;52.344;14.518;2024-02-23T09:37:52;98841.59;;;11.33;99.60
13695;BME280;6919;52.344;14.518;2024-02-23T09:40:20;98841.06;;;11.57;98.78
13695;BME280;6919;52.344;14.518;2024-02-23T09:42:55;98844.81;;;11.62;98.46
13695;BME280;6919;52.344;14.518;2024-02-23T09:45:25;98853.97;;;11.27;97.97
13695;BME280;6919;52.344;14.518;2024-02-23T09:47:57;98863.75;;;11.54;98.47
13695;BME280;6919;52.344;14.518;2024-02-23T09:50:27;98867.75;;;11.65;97.11
13695;BME280;6919;52.344;14.518;2024-02-23T09:52:58;98880.00;;;12.00;96.02
13695;BME280;6919;52.344;14.518;2024-02-23T09:55:29;98882.25;;;11.83;93.71
13695;BME280;6919;52.344;14.518;2024-02-23T09:57:58;98893.38;;;11.80;97.20
13695;BME280;6919;52.344;14.518;2024-02-23T10:00:28;98895.06;;;12.08;93.53
13695;BME280;6919;52.344;14.518;2024-02-23T10:02:58;98895.06;;;12.47;90.68
13695;BME280;6919;52.344;14.518;2024-02-23T10:05:30;98891.34;;;12.41;87.75
13695;BME280;6919;52.344;14.518;2024-02-23T10:08:05;98888.41;;;11.84;89.44
13695;BME280;6919;52.344;14.518;2024-02-23T10:10:34;98889.41;;;11.63;91.39
13695;BME280;6919;52.344;14.518;2024-02-23T10:13:05;98892.97;;;11.83;89.90
13695;BME280;6919;52.344;14.518;2024-02-23T10:15:34;98904.09;;;11.74;89.94
13695;BME280;6919;52.344;14.518;2024-02-23T10:18:05;98906.88;;;12.26;89.71
13695;BME280;6919;52.344;14.518;2024-02-23T10:20:33;98903.13;;;12.08;89.42
13695;BME280;6919;52.344;14.518;2024-02-23T10:23:01;98906.03;;;12.39;87.21
13695;BME280;6919;52.344;14.518;2024-02-23T10:25:33;98894.47;;;12.19;86.72
13695;BME280;6919;52.344;14.518;2024-02-23T10:28:02;98897.38;;;12.17;86.74
13695;BME280;6919;52.344;14.518;2024-02-23T10:30:30;98891.13;;;12.62;85.04
13695;BME280;6919;52.344;14.518;2024-02-23T10:32:59;98908.31;;;12.55;81.07
13695;BME280;6919;52.344;14.518;2024-02-23T10:35:31;98898.34;;;12.88;81.64
13695;BME280;6919;52.344;14.518;2024-02-23T10:38:05;98894.41;;;12.97;79.47
13695;BME280;6919;52.344;14.518;2024-02-23T10:40:39;98888.84;;;12.98;76.80
13695;BME280;6919;52.344;14.518;2024-02-23T10:43:12;98889.28;;;12.76;75.87
13695;BME280;6919;52.344;14.518;2024-02-23T10:45:44;98887.63;;;12.62;75.58
13695;BME280;6919;52.344;14.518;2024-02-23T10:48:14;98893.19;;;12.73;75.63
13695;BME280;6919;52.344;14.518;2024-02-23T10:50:44;98891.53;;;12.85;73.88
13695;BME280;6919;52.344;14.518;2024-02-23T10:53:14;98898.97;;;12.90;69.28
13695;BME280;6919;52.344;14.518;2024-02-23T10:55:46;98902.72;;;12.24;68.21
13695;BME280;6919;52.344;14.518;2024-02-23T10:58:16;98908.94;;;12.57;69.66
13695;BME280;6919;52.344;14.518;2024-02-23T11:00:45;98912.63;;;13.08;72.42
13695;BME280;6919;52.344;14.518;2024-02-23T11:03:15;98914.50;;;12.75;71.78
13695;BME280;6919;52.344;14.518;2024-02-23T11:05:47;98913.91;;;12.40;67.35
13695;BME280;6919;52.344;14.518;2024-02-23T11:08:18;98907.03;;;12.96;68.44
13695;BME280;6919;52.344;14.518;2024-02-23T11:10:50;98913.25;;;13.03;66.86
13695;BME280;6919;52.344;14.518;2024-02-23T11:13:30;98911.59;;;12.89;67.42
13695;BME280;6919;52.344;14.518;2024-02-23T11:16:02;98905.59;;;12.68;69.85
13695;BME280;6919;52.344;14.518;2024-02-23T11:18:33;98911.63;;;12.44;69.51
13695;BME280;6919;52.344;14.518;2024-02-23T11:21:05;98916.56;;;12.92;68.62
13695;BME280;6919;52.344;14.518;2024-02-23T11:23:41;98931.88;;;12.27;66.80
13695;BME280;6919;52.344;14.518;2024-02-23T11:26:10;98932.69;;;12.14;71.46
13695;BME280;6919;52.344;14.518;2024-02-23T11:28:43;98937.84;;;12.03;71.40
13695;BME280;6919;52.344;14.518;2024-02-23T11:31:13;98925.22;;;11.83;69.46
13695;BME280;6919;52.344;14.518;2024-02-23T11:33:48;98934.78;;;12.25;68.88
13695;BME280;6919;52.344;14.518;2024-02-23T11:36:29;98919.28;;;12.53;66.02
13695;BME280;6919;52.344;14.518;2024-02-23T11:39:00;98926.94;;;12.56;64.46
13695;BME280;6919;52.344;14.518;2024-02-23T11:41:29;98931.06;;;12.65;65.00
13695;BME280;6919;52.344;14.518;2024-02-23T11:43:58;98934.53;;;12.14;63.42
13695;BME280;6919;52.344;14.518;2024-02-23T11:46:26;98938.06;;;12.47;63.08
13695;BME280;6919;52.344;14.518;2024-02-23T11:48:54;98949.88;;;12.46;62.71
13695;BME280;6919;52.344;14.518;2024-02-23T11:51:23;98951.72;;;12.19;62.60
13695;BME280;6919;52.344;14.518;2024-02-23T11:53:56;98961.03;;;12.62;60.57
13695;BME280;6919;52.344;14.518;2024-02-23T11:56:28;98967.66;;;12.86;59.48
13695;BME280;6919;52.344;14.518;2024-02-23T11:58:57;98968.91;;;12.77;59.11
13695;BME280;6919;52.344;14.518;2024-02-23T12:01:29;98970.38;;;12.99;58.42
13695;BME280;6919;52.344;14.518;2024-02-23T12:03:58;98972.00;;;12.74;60.93
13695;BME280;6919;52.344;14.518;2024-02-23T12:06:29;98977.81;;;13.03;61.45
13695;BME280;6919;52.344;14.518;2024-02-23T12:09:01;98984.63;;;12.67;59.17
13695;BME280;6919;52.344;14.518;2024-02-23T12:11:29;98975.94;;;12.78;59.77
13695;BME280;6919;52.344;14.518;2024-02-23T12:13:58;98972.00;;;12.93;60.98
13695;BME280;6919;52.344;14.518;2024-02-23T12:16:29;98975.88;;;13.36;58.01
13695;BME280;6919;52.344;14.518;2024-02-23T12:18:57;98977.63;;;13.75;57.77
13695;BME280;6919;52.344;14.518;2024-02-23T12:21:25;98986.69;;;12.91;55.83
13695;BME280;6919;52.344;14.518;2024-02-23T12:23:54;98987.53;;;12.85;54.99
13695;BME280;6919;52.344;14.518;2024-02-23T12:26:24;98982.72;;;13.32;55.51
13695;BME280;6919;52.344;14.518;2024-02-23T12:29:00;98980.69;;;13.15;56.20
13695;BME280;6919;52.344;14.518;2024-02-23T12:31:28;98974.47;;;13.21;55.28
13695;BME280;6919;52.344;14.518;2024-02-23T12:34:00;98973.25;;;13.10;55.72
13695;BME280;6919;52.344;14.518;2024-02-23T12:36:29;98981.13;;;12.99;55.22
13695;BME280;6919;52.344;14.518;2024-02-23T12:38:57;98967.84;;;12.97;55.39
13695;BME280;6919;52.344;14.518;2024-02-23T12:41:27;98977.81;;;13.03;55.82
13695;BME280;6919;52.344;14.518;2024-02-23T12:43:55;98987.53;;;12.91;56.39
13695;BME280;6919;52.344;14.518;2024-02-23T12:46:24;98981.31;;;13.23;57.09
13695;BME280;6919;52.344;14.518;2024-02-23T12:48:52;98982.50;;;13.34;55.54
13695;BME280;6919;52.344;14.518;2024-02-23T12:51:25;98998.69;;;13.14;55.28
13695;BME280;6919;52.344;14.518;2024-02-23T12:53:54;98994.56;;;13.18;55.28
13695;BME280;6919;52.344;14.518;2024-02-23T12:56:22;98986.50;;;12.92;56.83
13695;BME280;6919;52.344;14.518;2024-02-23T12:58:53;98986.25;;;13.26;56.42
13695;BME280;6919;52.344;14.518;2024-02-23T13:01:22;98994.66;;;13.56;56.16
13695;BME280;6919;52.344;14.518;2024-02-23T13:03:50;98988.56;;;13.80;56.04
13695;BME280;6919;52.344;14.518;2024-02-23T13:06:19;98987.34;;;13.76;54.25
13695;BME280;6919;52.344;14.518;2024-02-23T13:08:47;98986.34;;;13.70;53.58